createdAt,value
2023-01-26T00:00:44.636Z,26.50
2023-01-26T00:01:44.586Z,27.09
2023-01-26T00:02:44.595Z,26.74
2023-01-26T00:03:44.585Z,26.50
2023-01-26T00:55:49.188Z,25.00
2023-01-26T00:56:50.107Z,25.00
2023-01-26T00:57:50.063Z,25.00
2023-01-26T00:58:50.036Z,25.00
2023-01-26T00:59:49.964Z,25.00
2023-01-26T01:00:49.968Z,25.00
2023-01-26T01:01:49.933Z,0.00
2023-01-26T01:02:49.833Z,0.00
2023-01-26T01:03:49.771Z,0.00
2023-01-26T01:04:49.722Z,0.00
2023-01-26T01:05:49.672Z,0.00
2023-01-26T01:06:49.630Z,0.00
2023-01-26T01:07:49.573Z,1.84
2023-01-26T01:08:49.530Z,17.59
2023-01-26T01:09:49.479Z,25.85
2023-01-26T01:10:49.425Z,25.29
2023-01-26T01:11:49.408Z,24.85
2023-01-26T01:12:49.335Z,25.87
2023-01-26T01:13:49.311Z,25.00
2023-01-26T01:14:49.237Z,25.92
2023-01-26T01:15:49.225Z,26.40
2023-01-26T01:16:49.128Z,25.00
2023-01-26T01:17:49.115Z,26.97
2023-01-26T01:18:49.028Z,26.45
2023-01-26T01:19:48.979Z,28.07
2023-01-26T01:20:48.955Z,26.19
2023-01-26T01:21:48.901Z,25.27
2023-01-26T01:22:48.839Z,25.22
2023-01-26T01:23:48.886Z,25.00
2023-01-26T01:24:48.737Z,25.37
2023-01-26T01:25:48.685Z,28.96
2023-01-26T01:26:48.641Z,26.97
2023-01-26T01:27:48.618Z,26.79
2023-01-26T01:28:48.535Z,26.21
2023-01-26T01:29:48.568Z,27.15
2023-01-26T01:30:48.471Z,25.00
2023-01-26T01:31:48.437Z,27.69
2023-01-26T01:32:48.365Z,25.03
2023-01-26T01:33:48.309Z,25.44
2023-01-26T01:34:48.274Z,25.87
2023-01-26T01:35:48.194Z,26.54
2023-01-26T01:36:48.144Z,26.90
2023-01-26T01:37:48.103Z,26.97
2023-01-26T01:38:48.082Z,25.21
2023-01-26T01:39:48.036Z,27.42
2023-01-26T01:40:47.958Z,26.54
2023-01-26T01:41:47.913Z,26.00
2023-01-26T01:42:47.870Z,27.07
2023-01-26T01:43:47.848Z,25.00
2023-01-26T01:44:47.779Z,29.52
2023-01-26T01:45:47.774Z,25.00
2023-01-26T01:46:47.737Z,28.64
2023-01-26T01:47:47.635Z,29.73
2023-01-26T01:48:47.597Z,27.24
2023-01-26T01:49:47.608Z,27.05
2023-01-26T01:50:47.510Z,29.84
2023-01-26T01:51:47.471Z,25.00
2023-01-26T01:52:47.421Z,28.84
2023-01-26T01:53:47.386Z,27.18
2023-01-26T01:54:47.354Z,26.44
2023-01-26T01:55:47.308Z,27.09
2023-01-26T01:56:47.288Z,27.08
2023-01-26T01:57:47.209Z,26.40
2023-01-26T01:58:47.161Z,28.37
2023-01-26T01:59:47.149Z,25.58
2023-01-26T02:00:47.144Z,27.92
2023-01-26T02:01:47.214Z,25.37
2023-01-26T02:02:46.991Z,26.64
2023-01-26T02:03:46.940Z,27.61
2023-01-26T02:04:46.941Z,26.86
2023-01-26T02:05:46.854Z,29.18
2023-01-26T02:06:46.814Z,28.53
2023-01-26T02:07:46.769Z,29.48
2023-01-26T02:08:46.726Z,28.22
2023-01-26T02:09:46.692Z,28.30
2023-01-26T02:10:46.637Z,25.94
2023-01-26T02:11:46.589Z,27.74
2023-01-26T02:12:46.542Z,26.17
2023-01-26T02:13:46.500Z,28.54
2023-01-26T02:14:46.457Z,26.51
2023-01-26T02:15:46.432Z,26.48
2023-01-26T02:16:46.360Z,28.41
2023-01-26T02:17:46.322Z,28.66
2023-01-26T02:18:46.265Z,28.46
2023-01-26T02:19:46.759Z,31.31
2023-01-26T02:20:46.218Z,28.83
2023-01-26T02:21:46.125Z,26.66
2023-01-26T02:22:46.071Z,30.07
2023-01-26T02:23:46.029Z,28.94
2023-01-26T02:24:45.989Z,26.55
2023-01-26T02:25:45.945Z,26.44
2023-01-26T02:26:45.897Z,28.12
2023-01-26T02:27:45.871Z,27.14
2023-01-26T02:28:45.799Z,28.67
2023-01-26T02:29:45.748Z,29.93
2023-01-26T02:30:45.764Z,28.25
2023-01-26T02:31:45.786Z,29.42
2023-01-26T02:32:45.619Z,26.08
2023-01-26T02:33:45.593Z,29.56
2023-01-26T02:34:45.573Z,27.26
2023-01-26T02:35:45.551Z,30.88
2023-01-26T02:36:45.461Z,28.11
2023-01-26T02:37:45.427Z,29.09
2023-01-26T02:38:45.349Z,28.47
2023-01-26T02:39:45.307Z,30.43
2023-01-26T02:40:45.265Z,28.60
2023-01-26T02:41:45.260Z,29.95
2023-01-26T02:42:45.174Z,27.26
2023-01-26T02:43:45.140Z,29.83
2023-01-26T02:44:45.085Z,27.29
2023-01-26T02:45:45.043Z,28.68
2023-01-26T02:46:44.991Z,26.11
2023-01-26T02:47:45.011Z,30.21
2023-01-26T02:48:44.904Z,28.19
2023-01-26T02:49:44.883Z,29.04
2023-01-26T02:50:44.839Z,29.73
2023-01-26T02:51:44.784Z,27.83
2023-01-26T02:52:44.733Z,31.24
2023-01-26T02:53:44.778Z,29.18
2023-01-26T02:54:44.648Z,27.95
2023-01-26T02:55:44.619Z,33.41
2023-01-26T02:56:44.559Z,30.80
2023-01-26T02:57:44.556Z,30.55
2023-01-26T02:58:44.489Z,31.95
2023-01-26T02:59:44.437Z,32.46
2023-01-26T03:00:44.499Z,29.96
2023-01-26T03:01:44.421Z,30.80
2023-01-26T03:02:44.361Z,30.62
2023-01-26T03:03:44.299Z,30.19
2023-01-26T03:04:44.228Z,29.88
2023-01-26T03:05:44.202Z,29.98
2023-01-26T03:06:44.135Z,27.08
2023-01-26T03:07:44.194Z,29.77
2023-01-26T03:08:44.051Z,33.99
2023-01-26T03:09:44.005Z,30.32
2023-01-26T03:10:43.963Z,28.28
2023-01-26T03:11:43.927Z,26.64
2023-01-26T03:12:43.943Z,28.72
2023-01-26T03:13:43.833Z,29.77
2023-01-26T03:14:43.793Z,28.28
2023-01-26T03:15:43.808Z,27.45
2023-01-26T03:16:43.806Z,28.80
2023-01-26T03:17:43.707Z,27.16
2023-01-26T03:18:43.657Z,27.60
2023-01-26T03:19:43.640Z,25.68
2023-01-26T03:20:43.553Z,27.57
2023-01-26T03:21:43.558Z,29.41
2023-01-26T03:22:43.465Z,30.22
2023-01-26T03:23:43.426Z,26.69
2023-01-26T03:24:43.387Z,32.95
2023-01-26T03:25:43.359Z,29.91
2023-01-26T03:26:43.337Z,27.81
2023-01-26T03:27:43.271Z,28.71
2023-01-26T03:28:43.220Z,28.63
2023-01-26T03:29:43.191Z,28.82
2023-01-26T03:30:43.192Z,29.57
2023-01-26T03:31:43.258Z,29.68
2023-01-26T03:32:43.062Z,30.73
2023-01-26T03:33:43.084Z,27.74
2023-01-26T03:34:42.994Z,30.77
2023-01-26T03:35:43.013Z,28.42
2023-01-26T03:36:42.899Z,28.88
2023-01-26T03:37:42.859Z,28.11
2023-01-26T03:38:42.828Z,28.66
2023-01-26T03:39:42.782Z,32.87
2023-01-26T03:40:42.771Z,29.02
2023-01-26T03:41:42.695Z,30.65
2023-01-26T03:42:42.657Z,29.41
2023-01-26T03:43:42.612Z,29.50
2023-01-26T03:44:42.610Z,29.93
2023-01-26T03:45:42.545Z,27.53
2023-01-26T03:46:42.640Z,27.85
2023-01-26T03:47:42.454Z,30.54
2023-01-26T03:48:42.420Z,26.14
2023-01-26T03:49:42.414Z,28.88
2023-01-26T03:50:42.328Z,27.53
2023-01-26T03:51:42.346Z,30.63
2023-01-26T03:52:42.244Z,33.21
2023-01-26T03:53:42.199Z,28.67
2023-01-26T03:54:42.177Z,32.37
2023-01-26T03:55:42.124Z,29.61
2023-01-26T03:56:42.109Z,30.70
2023-01-26T03:57:42.043Z,29.97
2023-01-26T03:58:41.999Z,28.67
2023-01-26T03:59:41.986Z,29.83
2023-01-26T04:00:41.942Z,26.70
2023-01-26T04:01:41.924Z,30.26
2023-01-26T04:02:41.830Z,25.80
2023-01-26T04:03:41.809Z,28.46
2023-01-26T04:04:41.749Z,26.42
2023-01-26T04:05:41.759Z,27.86
2023-01-26T04:06:41.663Z,27.46
2023-01-26T04:07:41.651Z,30.25
2023-01-26T04:08:41.581Z,29.96
2023-01-26T04:09:41.545Z,29.35
2023-01-26T04:10:41.506Z,29.36
2023-01-26T04:11:41.459Z,30.52
2023-01-26T04:12:41.423Z,29.09
2023-01-26T04:13:41.364Z,29.49
2023-01-26T04:14:49.326Z,30.05
2023-01-26T04:15:41.289Z,30.32
2023-01-26T04:16:41.341Z,31.09
2023-01-26T04:17:41.211Z,31.70
2023-01-26T04:18:41.168Z,31.00
2023-01-26T04:19:41.127Z,32.52
2023-01-26T04:20:41.104Z,30.29
2023-01-26T04:21:41.145Z,30.63
2023-01-26T04:22:41.009Z,29.82
2023-01-26T04:23:41.599Z,28.12
2023-01-26T04:24:40.960Z,31.88
2023-01-26T04:25:40.891Z,28.52
2023-01-26T04:26:40.848Z,27.83
2023-01-26T04:27:40.809Z,29.65
2023-01-26T04:28:40.780Z,28.62
2023-01-26T04:29:40.749Z,30.17
2023-01-26T04:30:40.756Z,30.81
2023-01-26T04:31:40.767Z,31.10
2023-01-26T04:32:40.634Z,28.89
2023-01-26T04:33:40.609Z,26.31
2023-01-26T04:34:40.552Z,29.09
2023-01-26T04:35:40.513Z,26.66
2023-01-26T04:36:40.461Z,29.64
2023-01-26T04:37:40.494Z,29.40
2023-01-26T04:38:40.444Z,28.20
2023-01-26T04:39:40.365Z,29.31
2023-01-26T04:40:40.303Z,31.05
2023-01-26T04:41:42.345Z,28.19
2023-01-26T04:42:40.244Z,28.40
2023-01-26T04:43:40.181Z,29.04
2023-01-26T04:44:40.166Z,29.27
2023-01-26T04:45:40.133Z,30.25
2023-01-26T04:46:40.056Z,29.11
2023-01-26T04:47:40.048Z,30.68
2023-01-26T04:48:39.983Z,30.25
2023-01-26T04:49:39.937Z,26.82
2023-01-26T04:50:39.925Z,29.92
2023-01-26T04:51:39.867Z,28.65
2023-01-26T04:52:39.819Z,30.36
2023-01-26T04:53:39.786Z,30.10
2023-01-26T04:54:39.746Z,30.00
2023-01-26T04:55:39.738Z,29.73
2023-01-26T04:56:39.666Z,30.79
2023-01-26T04:57:39.647Z,27.73
2023-01-26T04:58:39.585Z,30.18
2023-01-26T04:59:39.540Z,30.57
2023-01-26T05:00:39.503Z,31.00
2023-01-26T05:01:39.467Z,31.69
2023-01-26T05:02:39.442Z,27.77
2023-01-26T05:03:39.368Z,29.29
2023-01-26T05:04:39.324Z,28.78
2023-01-26T05:05:39.288Z,28.21
2023-01-26T05:06:39.244Z,28.84
2023-01-26T05:07:39.236Z,27.37
2023-01-26T05:08:39.162Z,30.29
2023-01-26T05:09:39.119Z,29.33
2023-01-26T05:10:39.075Z,29.53
2023-01-26T05:11:39.077Z,27.45
2023-01-26T05:12:39.032Z,30.22
2023-01-26T05:13:38.953Z,29.16
2023-01-26T05:14:38.916Z,29.48
2023-01-26T05:15:38.877Z,31.02
2023-01-26T05:16:38.913Z,29.57
2023-01-26T05:17:38.839Z,28.06
2023-01-26T05:18:38.759Z,28.68
2023-01-26T05:19:38.714Z,27.74
2023-01-26T05:20:38.673Z,28.48
2023-01-26T05:21:38.664Z,29.22
2023-01-26T05:22:38.594Z,30.23
2023-01-26T05:23:38.555Z,28.72
2023-01-26T05:24:38.512Z,28.40
2023-01-26T05:25:38.472Z,29.93
2023-01-26T05:26:38.464Z,30.19
2023-01-26T05:27:38.414Z,31.26
2023-01-26T05:28:38.355Z,29.23
2023-01-26T05:29:38.317Z,27.32
2023-01-26T05:30:38.282Z,30.94
2023-01-26T05:31:38.337Z,30.47
2023-01-26T05:32:38.197Z,28.89
2023-01-26T05:33:38.154Z,28.80
2023-01-26T05:34:38.114Z,28.46
2023-01-26T05:35:38.092Z,27.22
2023-01-26T05:36:38.031Z,28.73
2023-01-26T05:37:37.985Z,28.38
2023-01-26T05:38:37.962Z,30.17
2023-01-26T05:39:37.922Z,26.60
2023-01-26T05:40:37.887Z,30.57
2023-01-26T05:41:37.825Z,25.00
2023-01-26T05:42:37.776Z,28.84
2023-01-26T05:43:37.789Z,31.17
2023-01-26T05:44:37.698Z,28.97
2023-01-26T05:45:37.719Z,31.75
2023-01-26T05:46:37.604Z,28.63
2023-01-26T05:47:37.563Z,29.90
2023-01-26T05:48:37.518Z,30.40
2023-01-26T05:49:37.502Z,29.81
2023-01-26T05:50:37.426Z,31.24
2023-01-26T05:51:37.378Z,31.52
2023-01-26T05:52:37.333Z,30.11
2023-01-26T05:53:37.293Z,29.07
2023-01-26T05:54:37.268Z,30.04
2023-01-26T05:55:37.227Z,28.94
2023-01-26T05:56:37.171Z,30.24
2023-01-26T05:57:37.139Z,25.47
2023-01-26T05:58:37.139Z,30.70
2023-01-26T05:59:37.092Z,29.18
2023-01-26T06:00:37.006Z,30.67
2023-01-26T06:01:36.970Z,28.77
2023-01-26T06:02:37.016Z,29.92
2023-01-26T06:03:36.872Z,31.66
2023-01-26T06:04:36.943Z,30.16
2023-01-26T06:05:46.267Z,30.60
2023-01-26T06:06:36.744Z,31.39
2023-01-26T06:07:36.712Z,31.77
2023-01-26T06:08:36.737Z,32.09
2023-01-26T06:09:36.904Z,32.64
2023-01-26T06:10:36.568Z,33.09
2023-01-26T06:11:36.522Z,30.29
2023-01-26T06:12:36.481Z,29.41
2023-01-26T06:13:36.446Z,30.29
2023-01-26T06:14:36.412Z,30.10
2023-01-26T06:15:36.370Z,30.79
2023-01-26T06:16:36.322Z,28.92
2023-01-26T06:17:36.270Z,29.35
2023-01-26T06:18:36.215Z,29.01
2023-01-26T06:19:36.218Z,30.01
2023-01-26T06:20:36.365Z,31.63
2023-01-26T06:21:36.090Z,29.91
2023-01-26T06:22:36.062Z,32.01
2023-01-26T06:23:36.010Z,26.02
2023-01-26T06:24:35.959Z,31.27
2023-01-26T06:25:36.365Z,30.23
2023-01-26T06:26:35.940Z,33.27
2023-01-26T06:27:35.833Z,38.03
2023-01-26T06:28:35.787Z,39.91
2023-01-26T06:29:35.750Z,36.24
2023-01-26T06:30:35.796Z,41.55
2023-01-26T06:31:36.017Z,42.86
2023-01-26T06:32:35.617Z,42.84
2023-01-26T06:33:35.573Z,41.86
2023-01-26T06:34:35.544Z,42.65
2023-01-26T06:35:35.579Z,40.96
2023-01-26T06:36:35.467Z,39.64
2023-01-26T06:37:35.399Z,42.32
2023-01-26T06:38:35.362Z,42.36
2023-01-26T06:39:35.378Z,45.35
2023-01-26T06:40:35.272Z,236.25
2023-01-26T06:41:35.214Z,212.18
2023-01-26T06:42:35.167Z,152.65
2023-01-26T06:43:35.132Z,105.60
2023-01-26T06:44:35.376Z,98.36
2023-01-26T06:45:35.446Z,81.71
2023-01-26T06:46:34.986Z,75.04
2023-01-26T06:47:36.916Z,78.59
2023-01-26T06:48:34.921Z,78.71
2023-01-26T06:49:34.860Z,77.29
2023-01-26T06:50:34.815Z,72.44
2023-01-26T06:51:34.879Z,71.73
2023-01-26T06:52:34.749Z,73.53
2023-01-26T06:53:34.975Z,82.47
2023-01-26T06:54:34.652Z,81.08
2023-01-26T06:55:34.627Z,77.87
2023-01-26T06:56:34.605Z,74.89
2023-01-26T06:57:35.546Z,72.33
2023-01-26T06:58:41.921Z,73.25
2023-01-26T06:59:38.121Z,73.64
2023-01-26T07:00:34.509Z,73.88
2023-01-26T07:01:34.441Z,75.37
2023-01-26T07:02:34.438Z,76.12
2023-01-26T07:03:34.468Z,79.38
2023-01-26T07:04:34.427Z,82.46
2023-01-26T07:05:34.281Z,80.74
2023-01-26T07:06:34.229Z,84.41
2023-01-26T07:07:34.245Z,84.15
2023-01-26T07:08:34.142Z,84.49
2023-01-26T07:09:34.399Z,83.38
2023-01-26T07:10:34.408Z,83.93
2023-01-26T07:11:34.043Z,81.80
2023-01-26T07:12:34.022Z,84.05
2023-01-26T07:13:33.993Z,81.37
2023-01-26T07:14:34.434Z,82.43
2023-01-26T07:15:33.914Z,82.94
2023-01-26T07:16:34.177Z,82.48
2023-01-26T07:17:33.845Z,82.26
2023-01-26T07:18:34.180Z,82.43
2023-01-26T07:19:33.805Z,85.33
2023-01-26T07:20:33.731Z,83.61
2023-01-26T07:21:33.687Z,81.82
2023-01-26T07:22:33.642Z,81.33
2023-01-26T07:23:35.013Z,79.04
2023-01-26T07:24:33.721Z,84.97
2023-01-26T07:25:33.593Z,80.10
2023-01-26T07:26:33.549Z,82.44
2023-01-26T07:27:33.505Z,80.98
2023-01-26T07:28:33.465Z,83.25
2023-01-26T07:29:33.923Z,82.82
2023-01-26T07:30:33.368Z,82.80
2023-01-26T07:31:33.397Z,82.64
2023-01-26T07:32:33.293Z,81.56
2023-01-26T07:33:33.253Z,82.09
2023-01-26T07:34:33.442Z,79.13
2023-01-26T07:35:33.211Z,80.72
2023-01-26T07:36:33.135Z,81.55
2023-01-26T07:37:33.097Z,80.18
2023-01-26T07:38:33.070Z,83.18
2023-01-26T07:39:33.463Z,80.12
2023-01-26T07:40:33.443Z,78.42
2023-01-26T07:41:32.946Z,80.64
2023-01-26T07:42:33.420Z,79.49
2023-01-26T07:43:32.882Z,77.15
2023-01-26T07:44:32.838Z,77.17
2023-01-26T07:45:32.924Z,81.51
2023-01-26T07:46:32.806Z,80.41
2023-01-26T07:47:32.728Z,80.53
2023-01-26T07:48:32.699Z,79.03
2023-01-26T07:49:32.661Z,76.56
2023-01-26T07:50:32.919Z,77.90
2023-01-26T07:51:39.939Z,80.94
2023-01-26T07:52:32.557Z,81.44
2023-01-26T07:53:32.528Z,81.38
2023-01-26T07:54:32.482Z,81.29
2023-01-26T07:55:32.945Z,80.89
2023-01-26T07:56:32.413Z,79.46
2023-01-26T07:57:32.377Z,79.27
2023-01-26T07:58:32.331Z,80.09
2023-01-26T07:59:32.289Z,77.70
2023-01-26T08:00:32.252Z,77.13
2023-01-26T08:01:32.310Z,80.02
2023-01-26T08:02:32.209Z,78.66
2023-01-26T08:03:32.133Z,78.22
2023-01-26T08:04:32.420Z,76.86
2023-01-26T08:05:32.054Z,79.37
2023-01-26T08:06:32.112Z,78.95
2023-01-26T08:07:33.003Z,78.30
2023-01-26T08:08:31.937Z,77.08
2023-01-26T08:09:32.921Z,78.01
2023-01-26T08:10:31.916Z,78.65
2023-01-26T08:11:31.934Z,77.98
2023-01-26T08:12:31.770Z,77.93
2023-01-26T08:13:35.818Z,80.48
2023-01-26T08:14:45.902Z,80.60
2023-01-26T08:15:31.656Z,80.77
2023-01-26T08:16:31.750Z,81.03
2023-01-26T08:17:31.561Z,80.78
2023-01-26T08:18:31.575Z,80.30
2023-01-26T08:19:31.926Z,80.34
2023-01-26T08:20:31.433Z,81.09
2023-01-26T08:21:31.545Z,80.30
2023-01-26T08:22:31.339Z,79.47
2023-01-26T08:23:31.339Z,80.08
2023-01-26T08:24:31.447Z,77.54
2023-01-26T08:25:31.253Z,77.90
2023-01-26T08:26:31.182Z,76.50
2023-01-26T08:27:31.142Z,77.18
2023-01-26T08:28:31.438Z,78.15
2023-01-26T08:29:31.064Z,80.73
2023-01-26T08:30:31.010Z,79.59
2023-01-26T08:31:31.046Z,79.26
2023-01-26T08:32:30.929Z,78.36
2023-01-26T08:33:30.982Z,80.36
2023-01-26T08:34:30.848Z,79.45
2023-01-26T08:35:31.459Z,77.73
2023-01-26T08:36:30.765Z,76.98
2023-01-26T08:37:30.725Z,76.50
2023-01-26T08:38:30.710Z,78.71
2023-01-26T08:39:30.989Z,79.34
2023-01-26T08:40:30.969Z,81.63
2023-01-26T08:41:30.572Z,80.06
2023-01-26T08:42:30.534Z,87.72
2023-01-26T08:43:30.972Z,87.49
2023-01-26T08:44:30.448Z,90.44
2023-01-26T08:45:31.540Z,94.29
2023-01-26T08:46:30.374Z,98.75
2023-01-26T08:47:30.352Z,100.95
2023-01-26T08:48:30.320Z,107.18
2023-01-26T08:49:30.460Z,110.62
2023-01-26T08:50:30.222Z,114.01
2023-01-26T08:51:30.440Z,118.67
2023-01-26T08:52:30.968Z,120.81
2023-01-26T08:53:30.090Z,121.31
2023-01-26T08:54:30.291Z,124.29
2023-01-26T08:55:30.028Z,127.61
2023-01-26T08:56:29.960Z,129.46
2023-01-26T08:57:29.962Z,133.70
2023-01-26T08:58:29.900Z,135.48
2023-01-26T08:59:30.446Z,137.87
2023-01-26T09:00:29.960Z,140.62
2023-01-26T09:01:29.786Z,144.39
2023-01-26T09:02:30.086Z,148.04
2023-01-26T09:03:29.707Z,148.11
2023-01-26T09:04:29.639Z,150.30
2023-01-26T09:05:29.589Z,151.39
2023-01-26T09:06:29.554Z,154.49
2023-01-26T09:07:29.552Z,156.98
2023-01-26T09:08:29.944Z,157.80
2023-01-26T09:09:29.425Z,160.79
2023-01-26T09:10:29.391Z,163.51
2023-01-26T09:11:29.500Z,163.01
2023-01-26T09:12:29.303Z,168.94
2023-01-26T09:13:29.261Z,170.21
2023-01-26T09:14:29.231Z,170.29
2023-01-26T09:15:29.262Z,174.46
2023-01-26T09:16:29.577Z,175.20
2023-01-26T09:17:29.083Z,180.80
2023-01-26T09:18:29.035Z,183.72
2023-01-26T09:19:30.888Z,185.46
2023-01-26T09:20:28.958Z,189.72
2023-01-26T09:21:29.017Z,194.04
2023-01-26T09:22:28.978Z,192.11
2023-01-26T09:23:28.805Z,195.22
2023-01-26T09:24:28.764Z,197.39
2023-01-26T09:25:28.720Z,195.44
2023-01-26T09:26:28.670Z,174.84
2023-01-26T09:27:29.034Z,153.86
2023-01-26T09:28:28.952Z,150.62
2023-01-26T09:29:28.543Z,142.99
2023-01-26T09:30:28.824Z,139.14
2023-01-26T09:31:28.603Z,127.83
2023-01-26T09:32:28.471Z,125.00
2023-01-26T09:33:28.400Z,120.91
2023-01-26T09:34:28.456Z,112.69
2023-01-26T09:35:28.315Z,105.78
2023-01-26T09:36:28.586Z,107.64
2023-01-26T09:37:28.240Z,103.36
2023-01-26T09:38:28.207Z,93.70
2023-01-26T09:39:28.182Z,91.77
2023-01-26T09:40:28.482Z,90.74
2023-01-26T09:41:28.468Z,79.14
2023-01-26T09:42:28.082Z,76.95
2023-01-26T09:43:28.080Z,64.10
2023-01-26T09:44:28.086Z,58.96
2023-01-26T09:45:28.010Z,58.74
2023-01-26T09:46:28.562Z,58.43
2023-01-26T09:47:27.955Z,54.38
2023-01-26T09:48:27.934Z,48.82
2023-01-26T09:49:27.900Z,47.81
2023-01-26T09:50:27.883Z,51.54
2023-01-26T09:51:27.983Z,54.79
2023-01-26T09:52:28.003Z,59.87
2023-01-26T09:53:27.779Z,63.36
2023-01-26T09:54:27.748Z,67.13
2023-01-26T09:55:27.732Z,66.12
2023-01-26T09:56:28.742Z,73.80
2023-01-26T09:57:27.948Z,81.16
2023-01-26T09:58:27.803Z,83.70
2023-01-26T09:59:27.566Z,89.71
2023-01-26T10:00:27.516Z,92.67
2023-01-26T10:01:27.500Z,93.59
2023-01-26T10:02:27.546Z,100.45
2023-01-26T10:03:27.377Z,100.21
2023-01-26T10:04:27.321Z,104.26
2023-01-26T10:05:27.492Z,105.31
2023-01-26T10:06:27.493Z,110.44
2023-01-26T10:07:27.202Z,113.98
2023-01-26T10:08:27.147Z,116.49
2023-01-26T10:09:27.106Z,117.94
2023-01-26T10:10:27.049Z,122.94
2023-01-26T10:11:27.491Z,122.66
2023-01-26T10:12:26.949Z,126.22
2023-01-26T10:13:26.895Z,128.41
2023-01-26T10:14:26.850Z,130.46
2023-01-26T10:15:26.876Z,135.68
2023-01-26T10:16:26.765Z,136.57
2023-01-26T10:17:26.965Z,138.74
2023-01-26T10:18:26.689Z,142.69
2023-01-26T10:19:26.643Z,144.10
2023-01-26T10:20:26.592Z,143.91
2023-01-26T10:21:27.050Z,145.00
2023-01-26T10:22:26.506Z,105.88
2023-01-26T10:23:26.460Z,134.19
2023-01-26T10:24:26.431Z,141.19
2023-01-26T10:25:26.491Z,136.10
2023-01-26T10:26:26.308Z,133.61
2023-01-26T10:27:26.255Z,135.43
2023-01-26T10:28:26.206Z,132.29
2023-01-26T10:29:26.158Z,129.02
2023-01-26T10:30:26.509Z,129.29
2023-01-26T10:31:26.177Z,127.90
2023-01-26T10:32:26.019Z,128.57
2023-01-26T10:33:25.980Z,130.50
2023-01-26T10:34:26.012Z,130.08
2023-01-26T10:35:26.507Z,130.84
2023-01-26T10:36:25.841Z,133.47
2023-01-26T10:37:25.787Z,133.84
2023-01-26T10:38:25.970Z,133.52
2023-01-26T10:39:25.699Z,135.53
2023-01-26T10:40:25.653Z,135.86
2023-01-26T10:41:26.010Z,139.45
2023-01-26T10:42:25.539Z,140.10
2023-01-26T10:43:26.005Z,140.68
2023-01-26T10:44:25.511Z,144.27
2023-01-26T10:45:25.426Z,146.50
2023-01-26T10:46:25.357Z,151.31
2023-01-26T10:47:25.328Z,149.68
2023-01-26T10:48:25.480Z,155.65
2023-01-26T10:49:25.506Z,156.07
2023-01-26T10:50:25.156Z,159.52
2023-01-26T10:51:25.105Z,162.46
2023-01-26T10:52:25.071Z,163.07
2023-01-26T10:53:25.481Z,168.24
2023-01-26T10:54:25.537Z,167.31
2023-01-26T10:55:24.893Z,169.31
2023-01-26T10:56:24.855Z,172.41
2023-01-26T10:57:25.039Z,175.33
2023-01-26T10:58:25.016Z,175.84
2023-01-26T10:59:24.717Z,178.38
2023-01-26T11:00:24.700Z,182.03
2023-01-26T11:01:24.676Z,181.35
2023-01-26T11:02:24.644Z,186.82
2023-01-26T11:03:25.368Z,191.10
2023-01-26T11:04:24.450Z,190.06
2023-01-26T11:05:24.423Z,193.04
2023-01-26T11:06:24.339Z,194.57
2023-01-26T11:07:24.295Z,195.87
2023-01-26T11:08:24.245Z,200.38
2023-01-26T11:09:24.495Z,221.55
2023-01-26T11:10:24.138Z,227.01
2023-01-26T11:11:24.109Z,225.83
2023-01-26T11:12:24.078Z,225.79
2023-01-26T11:13:23.991Z,227.85
2023-01-26T11:14:23.993Z,230.64
2023-01-26T11:15:23.893Z,235.23
2023-01-26T11:16:23.918Z,236.28
2023-01-26T11:17:23.815Z,239.17
2023-01-26T11:18:24.188Z,240.51
2023-01-26T11:19:23.706Z,244.33
2023-01-26T11:20:23.609Z,242.56
2023-01-26T11:21:23.558Z,248.28
2023-01-26T11:22:23.500Z,247.53
2023-01-26T11:23:23.542Z,248.30
2023-01-26T11:24:23.576Z,249.87
2023-01-26T11:25:23.319Z,250.00
2023-01-26T11:26:23.266Z,250.00
2023-01-26T11:27:23.232Z,248.34
2023-01-26T11:28:23.164Z,246.29
2023-01-26T11:29:23.490Z,249.00
2023-01-26T11:30:23.057Z,247.78
2023-01-26T11:31:23.019Z,247.48
2023-01-26T11:32:22.952Z,250.00
2023-01-26T11:33:22.905Z,246.70
2023-01-26T11:34:23.001Z,248.29
2023-01-26T11:35:22.824Z,248.30
2023-01-26T11:36:22.754Z,248.12
2023-01-26T11:37:22.691Z,247.62
2023-01-26T11:38:22.647Z,249.65
2023-01-26T11:39:23.499Z,247.05
2023-01-26T11:40:22.535Z,250.00
2023-01-26T11:41:22.494Z,247.44
2023-01-26T11:42:22.425Z,249.91
2023-01-26T11:43:22.382Z,247.68
2023-01-26T11:44:22.528Z,250.00
2023-01-26T11:45:22.346Z,248.75
2023-01-26T11:46:22.248Z,247.32
2023-01-26T11:47:22.170Z,249.13
2023-01-26T11:48:22.131Z,249.66
2023-01-26T11:49:22.506Z,248.67
2023-01-26T11:50:22.020Z,246.36
2023-01-26T11:51:21.982Z,249.46
2023-01-26T11:52:21.927Z,250.00
2023-01-26T11:53:21.884Z,248.60
2023-01-26T11:54:22.013Z,247.65
2023-01-26T11:55:22.037Z,247.80
2023-01-26T11:56:21.725Z,247.28
2023-01-26T11:57:21.679Z,249.45
2023-01-26T11:58:21.640Z,249.21
2023-01-26T11:59:21.592Z,248.16
2023-01-26T12:00:29.994Z,248.91
2023-01-26T12:01:21.487Z,249.31
2023-01-26T12:02:21.500Z,250.32
2023-01-26T12:03:21.484Z,250.70
2023-01-26T12:04:21.353Z,254.34
2023-01-26T12:05:21.342Z,257.63
2023-01-26T12:06:21.520Z,249.94
2023-01-26T12:07:21.553Z,247.48
2023-01-26T12:08:21.147Z,248.58
2023-01-26T12:09:21.126Z,246.88
2023-01-26T12:10:21.073Z,248.36
2023-01-26T12:11:21.020Z,246.82
2023-01-26T12:12:21.011Z,249.84
2023-01-26T12:13:20.934Z,249.41
2023-01-26T12:14:21.009Z,248.83
2023-01-26T12:15:20.821Z,249.84
2023-01-26T12:16:21.030Z,248.06
2023-01-26T12:17:20.785Z,244.02
2023-01-26T12:18:20.665Z,248.07
2023-01-26T12:19:21.010Z,246.51
2023-01-26T12:20:21.443Z,244.94
2023-01-26T12:21:21.008Z,243.16
2023-01-26T12:22:20.540Z,239.61
2023-01-26T12:23:20.438Z,236.40
2023-01-26T12:24:48.488Z,234.05
2023-01-26T12:25:20.801Z,234.31
2023-01-26T12:26:20.269Z,234.27
2023-01-26T12:27:20.231Z,231.73
2023-01-26T12:28:20.186Z,228.01
2023-01-26T12:29:20.517Z,226.05
2023-01-26T12:30:20.103Z,221.90
2023-01-26T12:31:20.168Z,221.44
2023-01-26T12:32:19.990Z,219.03
2023-01-26T12:33:19.949Z,219.32
2023-01-26T12:34:20.017Z,216.55
2023-01-26T12:35:19.854Z,214.55
2023-01-26T12:36:19.818Z,212.93
2023-01-26T12:37:19.771Z,212.32
2023-01-26T12:38:19.723Z,209.70
2023-01-26T12:39:20.058Z,209.07
2023-01-26T12:40:20.029Z,207.50
2023-01-26T12:41:19.573Z,205.48
2023-01-26T12:42:19.522Z,203.94
2023-01-26T12:43:19.487Z,203.86
2023-01-26T12:44:19.415Z,204.07
2023-01-26T12:45:19.383Z,202.28
2023-01-26T12:46:19.357Z,201.27
2023-01-26T12:47:19.267Z,199.63
2023-01-26T12:48:19.214Z,199.90
2023-01-26T12:49:19.163Z,196.19
2023-01-26T12:50:19.126Z,196.96
2023-01-26T12:51:19.064Z,196.84
2023-01-26T12:52:19.025Z,194.15
2023-01-26T12:53:18.965Z,193.78
2023-01-26T12:54:18.918Z,195.36
2023-01-26T12:55:19.048Z,193.43
2023-01-26T12:56:18.814Z,191.49
2023-01-26T12:57:18.778Z,190.72
2023-01-26T12:58:18.717Z,190.30
2023-01-26T12:59:38.634Z,188.46
2023-01-26T13:00:18.616Z,188.83
2023-01-26T13:01:18.597Z,189.35
2023-01-26T13:02:18.536Z,188.90
2023-01-26T13:03:18.481Z,187.26
2023-01-26T13:04:18.413Z,186.69
2023-01-26T13:05:18.361Z,185.49
2023-01-26T13:06:18.314Z,184.84
2023-01-26T13:07:18.266Z,181.87
2023-01-26T13:08:18.223Z,185.02
2023-01-26T13:09:18.208Z,182.30
2023-01-26T13:10:18.527Z,180.75
2023-01-26T13:11:18.598Z,180.76
2023-01-26T13:12:18.028Z,178.17
2023-01-26T13:13:17.988Z,178.54
2023-01-26T13:14:17.925Z,177.87
2023-01-26T13:15:17.885Z,177.37
2023-01-26T13:16:18.140Z,175.79
2023-01-26T13:17:17.797Z,174.77
2023-01-26T13:18:17.738Z,172.98
2023-01-26T13:19:17.686Z,174.17
2023-01-26T13:20:17.623Z,172.65
2023-01-26T13:21:18.080Z,173.13
2023-01-26T13:22:17.518Z,170.49
2023-01-26T13:23:17.459Z,169.65
2023-01-26T13:24:17.508Z,167.57
2023-01-26T13:25:17.367Z,167.84
2023-01-26T13:26:17.321Z,169.22
2023-01-26T13:27:17.303Z,167.66
2023-01-26T13:28:17.200Z,165.74
2023-01-26T13:29:17.143Z,165.35
2023-01-26T13:30:17.093Z,164.98
2023-01-26T13:31:17.124Z,165.67
2023-01-26T13:32:16.991Z,162.48
2023-01-26T13:33:16.984Z,164.77
2023-01-26T13:34:16.889Z,161.98
2023-01-26T13:35:16.849Z,162.16